Princeton Airport

CYDC · Kolumbia Brytyjska, Kanada

Historia METAR CYDC · Princeton Airport

Poniżej widzisz METAR-y z ostatnich kilku dni. Wybierz rok, aby przeglądać starsze METAR-y, począwszy od roku 2007.

17 lipca 2024

Czas Kod Pogoda Temp. Widoczność Sufit Wiatr METAR/SPECI
15:00
V
35 °C 15 mi 26.000 ft 160° 160° 7 kt METAR CYDC 172200Z 16007KT 080V190 15SM FEW090 FEW130 BKN260 35/03 A2994 RMK CU1AC1CS5 FU SLP117 DENSITY ALT 5100FT
14:00
V
35 °C 12 mi 29.000 ft 360° 360° 0 kt METAR CYDC 172100Z 00000KT 12SM FEW080TCU SCT250 BKN290 35/04 A2995 RMK FU1TCU1CS3CI3 TCU TR FU SLP118 DENSITY ALT 5100FT
13:00
V
35 °C 15 mi - Var Var 2 kt METAR CYDC 172000Z VRB02KT 15SM FEW080TCU SCT290 35/03 A2996 RMK FU1TCU1CI3 TCU TR FU CONTRAILS SLP123 DENSITY ALT 5000FT
12:00
V
32 °C 20 mi - 160° 160° 3 kt METAR CYDC 171900Z 16003KT 110V230 20SM FEW070 FEW140 FEW290 32/09 A2998 RMK CU1AC1CI1 CU TR AC TR FU CONTRAILS SLP130 DENSITY ALT 4700FT
11:00
V
29 °C 20 mi - 360° 360° 0 kt METAR CYDC 171800Z 00000KT 20SM FEW070 FEW140 29/09 A3001 RMK CU1AC1 CU TR AC TR FU CONTRAILS SLP141 DENSITY ALT 4300FT
10:00
V
25 °C 20 mi - Var Var 2 kt METAR CYDC 171700Z VRB02KT 20SM FEW050 FEW120 FEW300 25/09 A3004 RMK CU1AC1CI1 CU TR AC TR CI TR FU SLP152 DENSITY ALT 3900FT
09:00
V
22 °C 20 mi - Var Var 2 kt METAR CYDC 171600Z VRB02KT 20SM FEW290 22/09 A3006 RMK CI1 CI TR FU SLP158 DENSITY ALT 3500FT
08:00
V
19 °C 20 mi - Var Var 2 kt METAR CYDC 171500Z VRB02KT 20SM FEW290 19/09 A3008 RMK CI1 CI TR FU SLP164 DENSITY ALT 3200FT
07:00
V
17 °C 20 mi - 360° 360° 0 kt METAR CYDC 171400Z 00000KT 20SM FEW280 17/08 A3008 RMK CI1 CI TR FU SLP165 DENSITY ALT 2900FT
06:00
V
14 °C 20 mi - 360° 360° 0 kt METAR CYDC 171300Z 00000KT 20SM FEW150 FEW280 14/08 A3007 RMK AC1CI1 AC TR CI TR FU SLP163 DENSITY ALT 2600FT

16 lipca 2024

Czas Kod Pogoda Temp. Widoczność Sufit Wiatr METAR/SPECI
18:00
V
34 °C 25 mi 8.100 ft 290° 290° 6 kt METAR CYDC 170100Z 29006KT 25SM TS SCT061CB SCT068TCU BKN081TCU BKN220 34/07 A2991 RMK CB4TCU1TCU2CI1 TCU TR FU/LAST STFD OBS/NEXT 17 1300Z SLP112 DENSITY ALT 5100FT
17:47
V
35 °C 25 mi 8.700 ft 270° 270° 5 kt METAR CYDC 170047Z 27005KT 25SM TS SCT062CB SCT068TCU BKN087TCU BKN230 35/06 A2991 RMK CB3TCU1TCU2CI1 CI TR FU SLP113 DENSITY ALT 5100FT
17:00
V
35 °C 25 mi 8.100 ft 280° 280° 6 kt METAR CYDC 170000Z 28006KT 230V310 25SM FEW063TCU SCT069CB BKN081TCU BKN260 35/05 A2992 RMK TCU2CB1TCU3CI1 FU SLP114 DENSITY ALT 5100FT
16:00
V
35 °C 25 mi 26.000 ft Var Var 3 kt METAR CYDC 162300Z VRB03KT 25SM SCT083TCU BKN260 35/06 A2993 RMK TCU4CI1 FU SLP119 DENSITY ALT 5100FT
15:00
V
36 °C 25 mi - 050° 050° 5 kt METAR CYDC 162200Z 05005KT 25SM FEW075 SCT081TCU SCT230 36/07 A2996 RMK CF1TCU3CI1 CF TR HZ SLP125 DENSITY ALT 5200FT
14:00
V
34 °C 25 mi - 110° 110° 8 kt METAR CYDC 162100Z 11008KT 25SM FEW079 FEW110 34/07 A2998 RMK CU2AC1 AC TR FU SLP134 DENSITY ALT 4900FT
13:00
V
32 °C 25 mi - Var Var 4 kt METAR CYDC 162000Z VRB04KT 25SM FEW070 FEW110 32/08 A3001 RMK CU1AC1 AC TR FU SLP144 DENSITY ALT 4700FT
12:00
V
28 °C 25 mi - 170° 170° 5 kt METAR CYDC 161900Z 17005KT 140V230 25SM FEW066 28/09 A3004 RMK CU1 CU TR FU SLP156 DENSITY ALT 4300FT
11:00
V
26 °C 25 mi - Var Var 3 kt METAR CYDC 161800Z VRB03KT 25SM FEW100 26/09 A3007 RMK AC1 AC TR FU SLP167 DENSITY ALT 3900FT
10:00
V
22 °C 25 mi - 360° 360° 0 kt METAR CYDC 161700Z 00000KT 25SM FEW090 FEW250 22/08 A3009 RMK FU2CI1 CI TR SLP178 DENSITY ALT 3500FT
09:00
V
19 °C 25 mi - Var Var 2 kt METAR CYDC 161600Z VRB02KT 25SM FEW085 FEW250 19/07 A3011 RMK FU1CI1 SLP183 DENSITY ALT 3100FT
08:00
V
17 °C 25 mi - 360° 360° 0 kt METAR CYDC 161500Z 00000KT 25SM FEW090 FEW260 17/07 A3013 RMK FU1CI1 CI TR SLP188 DENSITY ALT 2800FT
07:00
V
14 °C 25 mi - 360° 360° 0 kt METAR CYDC 161400Z 00000KT 25SM FEW080 FEW250 14/06 A3013 RMK FU1CI1 CI TR SLP188
06:00
V
11 °C 25 mi - 360° 360° 0 kt METAR CYDC 161300Z 00000KT 25SM FEW078 FEW240 11/05 A3012 RMK FU1CI1 SLP188

15 lipca 2024

Czas Kod Pogoda Temp. Widoczność Sufit Wiatr METAR/SPECI
18:00
V
30 °C 25 mi - 280° 280° 9 - 20 kt METAR CYDC 160100Z 28009G20KT 220V020 25SM SKC 30/04 A2996 RMK LAST STFD OBS/NEXT 16 1300Z SLP135 DENSITY ALT 4600FT
17:00
V
32 °C 25 mi - 280° 280° 6 kt METAR CYDC 160000Z 28006KT 250V340 25SM SKC 32/03 A2996 RMK SLP133 DENSITY ALT 4700FT
16:00
V
32 °C 25 mi - 310° 310° 4 kt METAR CYDC 152300Z 31004KT 260V040 25SM SKC 32/03 A2996 RMK HZ SLP132 DENSITY ALT 4800FT
15:00
V
32 °C 25 mi - 300° 300° 6 - 15 kt METAR CYDC 152200Z 30006G15KT 240V040 25SM SKC 32/03 A2997 RMK HZ SLP134 DENSITY ALT 4800FT
14:00
V
32 °C 25 mi - 300° 300° 9 - 17 kt METAR CYDC 152100Z 30009G17KT 230V030 25SM SKC 32/04 A2998 RMK HZ SLP135 DENSITY ALT 4700FT
13:00
V
31 °C 25 mi - 160° 160° 5 kt METAR CYDC 152000Z 16005KT 060V200 25SM FEW080 31/07 A2999 RMK FU1 FU TR SLP137 DENSITY ALT 4600FT
12:00
V
29 °C 25 mi - Var Var 3 kt METAR CYDC 151900Z VRB03KT 25SM FEW075 FEW230 29/07 A3001 RMK FU1CI1 SLP145 DENSITY ALT 4400FT
11:00
V
26 °C 25 mi - 090° 090° 3 kt METAR CYDC 151800Z 09003KT 360V170 25SM FEW071 FEW230 26/06 A3004 RMK FU1CI1 SLP156 DENSITY ALT 4000FT
10:00
V
23 °C 25 mi - Var Var 2 kt METAR CYDC 151700Z VRB02KT 25SM FEW070 FEW230 23/06 A3006 RMK FU1CI1 SLP165 DENSITY ALT 3700FT
09:00
V
18 °C 25 mi - 360° 360° 0 kt METAR CYDC 151600Z 00000KT 25SM FEW180 SCT230 18/04 A3008 RMK AC1CI2 FU SLP173 DENSITY ALT 3100FT
08:00
V
15 °C 25 mi - 360° 360° 0 kt METAR CYDC 151500Z 00000KT 25SM FEW190 SCT230 15/03 A3010 RMK AC1CI3 AC TR FU SLP178 DENSITY ALT 2700FT
07:00
V
12 °C 25 mi - 360° 360° 0 kt METAR CYDC 151400Z 00000KT 25SM SCT130 12/03 A3010 RMK CI3 FU SLP180
06:00
V
9 °C 25 mi - 360° 360° 0 kt METAR CYDC 151300Z 00000KT 25SM FEW180 SCT230 09/01 A3009 RMK AC1CI3 FU SLP180
Zgłoś zmianę